Ocean Celebrity — HOSZ — position and weather

sailwx.info

Track history (hours):
 
Tides and Currents Weather Stations Pressure Air Temp Water Temp Dewpoint Dewpoint Depression Visibility Wind Speed Wind Dir Waves Ship Positions

Ocean Celebrity

Last reported at 2016-Jun-17 16:05 UTC. Time now 2016-Jun-27 00:39 UTC.
Position N 31°08' E 122°15'.
Warning: this ship's position is 9 days out of date.

Length 289 m; draft 8.7 m.

Type: Cargo ship. MMSI: 356712000.

Date/timePositionNaut miles runAvg speedWind from/ knotsBaromVisibWave heightAir tempDewpointWater temp
2016-Jun-17 16:05N 31°08' E 122°15'713.6
2016-Jun-17 15:33N 31°12' E 122°09'1312.5
2016-Jun-17 14:32N 31°16' E 121°54'1110.8
2016-Jun-17 13:33N 31°19' E 121°43'10 9.5
2016-Jun-17 12:33N 31°24' E 121°33'10 9.8
2016-Jun-17 11:33N 31°30' E 121°24'0 0.3
2016-Jun-17 10:30N 31°30' E 121°23'0 0.0
2016-Jun-17 09:33N 31°30' E 121°23'0 0.0
2016-Jun-17 08:30N 31°30' E 121°23'0 0.0
2016-Jun-17 07:30N 31°30' E 121°23'0 0.0
2016-Jun-17 06:33N 31°30' E 121°23'0 0.0
2016-Jun-17 05:30N 31°30' E 121°23'0 0.0
2016-Jun-17 04:33N 31°30' E 121°23'0 0.0
2016-Jun-17 03:33N 31°30' E 121°23'0 0.0
2016-Jun-17 02:30N 31°30' E 121°23'0 0.0
2016-Jun-17 01:30N 31°30' E 121°23'0 0.0
2016-Jun-17 00:33N 31°30' E 121°23'0 0.0
2016-Jun-16 23:33N 31°30' E 121°23'0 0.0
2016-Jun-16 22:33N 31°30' E 121°23'0 0.0
2016-Jun-16 21:33N 31°30' E 121°23'0 0.0
2016-Jun-16 20:30N 31°30' E 121°23'0 0.0
2016-Jun-16 19:33N 31°30' E 121°23'0 0.0
2016-Jun-16 18:33N 31°30' E 121°23'0 0.0
2016-Jun-16 17:33N 31°30' E 121°23'0 0.0
2016-Jun-16 16:33N 31°30' E 121°23'0 0.0
2016-Jun-16 15:33N 31°30' E 121°23'0 0.0
2016-Jun-16 14:31N 31°30' E 121°23'0 0.0
2016-Jun-16 13:28N 31°30' E 121°23'0 0.0
2016-Jun-16 12:31N 31°30' E 121°23'0 0.0
2016-Jun-16 11:31N 31°30' E 121°23'0 0.0
2016-Jun-16 10:31N 31°30' E 121°23'0 0.0
2016-Jun-16 09:31N 31°30' E 121°23'0 0.0
2016-Jun-16 08:31N 31°30' E 121°23'0 0.0
2016-Jun-16 07:31N 31°30' E 121°23'0 0.0
2016-Jun-16 06:31N 31°30' E 121°23'0 0.0
2016-Jun-16 05:31N 31°30' E 121°23'0 0.0
2016-Jun-16 04:31N 31°30' E 121°23'0 0.0
2016-Jun-16 03:31N 31°30' E 121°23'0 0.0
2016-Jun-16 02:31N 31°30' E 121°23'0 0.0
2016-Jun-16 01:31N 31°30' E 121°23'0 0.0
2016-Jun-16 00:31N 31°30' E 121°23'0 0.0
2016-Jun-15 23:31N 31°30' E 121°23'0 0.0
2016-Jun-15 22:31N 31°30' E 121°23'0 0.0
2016-Jun-15 21:28N 31°30' E 121°23'0 0.0
2016-Jun-15 20:28N 31°30' E 121°23'0 0.0
2016-Jun-15 19:25N 31°30' E 121°23'0 0.0
2016-Jun-15 18:28N 31°30' E 121°23'0 0.0
2016-Jun-15 17:28N 31°30' E 121°23'0 0.0
2016-Jun-15 16:22N 31°30' E 121°23'0 0.0
2016-Jun-15 15:31N 31°30' E 121°23'0 0.1
2016-Jun-15 14:33N 31°30' E 121°23'4 4.1
2016-Jun-15 13:33N 31°27' E 121°27'7 7.4
2016-Jun-15 12:33N 31°23' E 121°35'8 8.0
2016-Jun-15 11:33N 31°19' E 121°43'10 8.2
2016-Jun-15 10:18N 31°16' E 121°54'1010.1
2016-Jun-15 09:20N 31°14' E 122°06'2010.6
2016-Jun-15 07:26N 31°06' E 122°27'7 5.8
2016-Jun-15 06:18N 31°07' E 122°35'7 0.7
2016-Jun-14 21:29N 31°10' E 122°42'79 6.4
2016-Jun-14 09:09N 29°50' E 122°42'811.8
2016-Jun-14 08:30N 29°46' E 122°35'1010.7
2016-Jun-14 07:33N 29°43' E 122°24'20 9.9
2016-Jun-14 05:33N 29°55' E 122°07'1010.2
2016-Jun-14 04:33N 29°57' E 121°55'2 0.4
2016-Jun-13 23:23N 29°56' E 121°53'0 0.0
2016-Jun-13 22:17N 29°56' E 121°53'0 0.0
2016-Jun-13 19:17N 29°56' E 121°53'0 0.0
2016-Jun-13 17:23N 29°56' E 121°53'0 0.0
2016-Jun-13 03:17N 29°56' E 121°53'1 0.2
2016-Jun-13 00:04N 29°57' E 121°54'0 0.0
2016-Jun-12 19:10N 29°57' E 121°53'0 0.1
2016-Jun-12 17:10N 29°57' E 121°54'0 0.0
2016-Jun-12 02:28N 29°57' E 121°54'0 0.0
2016-Jun-12 01:28N 29°57' E 121°54'0 0.0
2016-Jun-11 21:13N 29°57' E 121°54'0 0.1
2016-Jun-11 18:28N 29°57' E 121°53'0 0.0
2016-Jun-11 09:33N 29°57' E 121°54'0 0.0
2016-Jun-11 02:09N 29°57' E 121°53'0 0.0
2016-Jun-10 21:27N 29°57' E 121°53'0 0.1
2016-Jun-10 18:15N 29°57' E 121°53'0 0.1
2016-Jun-10 17:27N 29°57' E 121°53'0 0.0
2016-Jun-10 01:27N 29°57' E 121°53'0 0.1
2016-Jun-10 00:27N 29°57' E 121°53'0 0.0
2016-Jun-09 23:15N 29°57' E 121°53'0 0.1
2016-Jun-09 19:09N 29°57' E 121°53'0 0.0
2016-Jun-09 09:27N 29°57' E 121°53'0 0.1
2016-Jun-09 06:27N 29°57' E 121°53'0 0.1
2016-Jun-09 03:09N 29°57' E 121°53'0 0.2
2016-Jun-09 02:33N 29°57' E 121°53'0 0.0
2016-Jun-08 18:15N 29°57' E 121°53'0 0.0
2016-Jun-08 06:19N 29°57' E 121°53'3 4.1
2016-Jun-08 05:28N 29°58' E 121°57'8 8.7
2016-Jun-08 04:32N 29°55' E 122°06'10 9.8
2016-Jun-08 03:32N 29°49' E 122°14'10 9.7
2016-Jun-08 02:33N 29°44' E 122°24'6 6.3
2016-Jun-08 01:32N 29°42' E 122°31'7 3.3
2016-Jun-07 23:20N 29°42' E 122°39'0 0.4
2016-Jun-07 22:24N 29°42' E 122°39'17 6.0
2016-Jun-07 19:33N 29°27' E 122°49'  
Track history (hours):
 
Tides and Currents Weather Stations Pressure Air Temp Water Temp Dewpoint Dewpoint Depression Visibility Wind Speed Wind Dir Waves Ship Positions

Ocean Celebrity

Last reported at 2016-Jun-17 16:05 UTC. Time now 2016-Jun-27 00:39 UTC.
Position N 31°08' E 122°15'.
Warning: this ship's position is 9 days out of date.

Length 289 m; draft 8.7 m.

Type: Cargo ship. MMSI: 356712000.

Date/timePositionNaut miles runAvg speedWind from/ knotsBaromVisibWave heightAir tempDewpointWater temp
2016-Jun-17 16:05N 31°08' E 122°15'713.6
2016-Jun-17 15:33N 31°12' E 122°09'1312.5
2016-Jun-17 14:32N 31°16' E 121°54'1110.8
2016-Jun-17 13:33N 31°19' E 121°43'10 9.5
2016-Jun-17 12:33N 31°24' E 121°33'10 9.8
2016-Jun-17 11:33N 31°30' E 121°24'0 0.3
2016-Jun-17 10:30N 31°30' E 121°23'0 0.0
2016-Jun-17 09:33N 31°30' E 121°23'0 0.0
2016-Jun-17 08:30N 31°30' E 121°23'0 0.0
2016-Jun-17 07:30N 31°30' E 121°23'0 0.0
2016-Jun-17 06:33N 31°30' E 121°23'0 0.0
2016-Jun-17 05:30N 31°30' E 121°23'0 0.0
2016-Jun-17 04:33N 31°30' E 121°23'0 0.0
2016-Jun-17 03:33N 31°30' E 121°23'0 0.0
2016-Jun-17 02:30N 31°30' E 121°23'0 0.0
2016-Jun-17 01:30N 31°30' E 121°23'0 0.0
2016-Jun-17 00:33N 31°30' E 121°23'0 0.0
2016-Jun-16 23:33N 31°30' E 121°23'0 0.0
2016-Jun-16 22:33N 31°30' E 121°23'0 0.0
2016-Jun-16 21:33N 31°30' E 121°23'0 0.0
2016-Jun-16 20:30N 31°30' E 121°23'0 0.0
2016-Jun-16 19:33N 31°30' E 121°23'0 0.0
2016-Jun-16 18:33N 31°30' E 121°23'0 0.0
2016-Jun-16 17:33N 31°30' E 121°23'0 0.0
2016-Jun-16 16:33N 31°30' E 121°23'0 0.0
2016-Jun-16 15:33N 31°30' E 121°23'0 0.0
2016-Jun-16 14:31N 31°30' E 121°23'0 0.0
2016-Jun-16 13:28N 31°30' E 121°23'0 0.0
2016-Jun-16 12:31N 31°30' E 121°23'0 0.0
2016-Jun-16 11:31N 31°30' E 121°23'0 0.0
2016-Jun-16 10:31N 31°30' E 121°23'0 0.0
2016-Jun-16 09:31N 31°30' E 121°23'0 0.0
2016-Jun-16 08:31N 31°30' E 121°23'0 0.0
2016-Jun-16 07:31N 31°30' E 121°23'0 0.0
2016-Jun-16 06:31N 31°30' E 121°23'0 0.0
2016-Jun-16 05:31N 31°30' E 121°23'0 0.0
2016-Jun-16 04:31N 31°30' E 121°23'0 0.0
2016-Jun-16 03:31N 31°30' E 121°23'0 0.0
2016-Jun-16 02:31N 31°30' E 121°23'0 0.0
2016-Jun-16 01:31N 31°30' E 121°23'0 0.0
2016-Jun-16 00:31N 31°30' E 121°23'0 0.0
2016-Jun-15 23:31N 31°30' E 121°23'0 0.0
2016-Jun-15 22:31N 31°30' E 121°23'0 0.0
2016-Jun-15 21:28N 31°30' E 121°23'0 0.0
2016-Jun-15 20:28N 31°30' E 121°23'0 0.0
2016-Jun-15 19:25N 31°30' E 121°23'0 0.0
2016-Jun-15 18:28N 31°30' E 121°23'0 0.0
2016-Jun-15 17:28N 31°30' E 121°23'0 0.0
2016-Jun-15 16:22N 31°30' E 121°23'0 0.0
2016-Jun-15 15:31N 31°30' E 121°23'0 0.1
2016-Jun-15 14:33N 31°30' E 121°23'4 4.1
2016-Jun-15 13:33N 31°27' E 121°27'7 7.4
2016-Jun-15 12:33N 31°23' E 121°35'8 8.0
2016-Jun-15 11:33N 31°19' E 121°43'10 8.2
2016-Jun-15 10:18N 31°16' E 121°54'1010.1
2016-Jun-15 09:20N 31°14' E 122°06'2010.6
2016-Jun-15 07:26N 31°06' E 122°27'7 5.8
2016-Jun-15 06:18N 31°07' E 122°35'7 0.7
2016-Jun-14 21:29N 31°10' E 122°42'79 6.4
2016-Jun-14 09:09N 29°50' E 122°42'811.8
2016-Jun-14 08:30N 29°46' E 122°35'1010.7
2016-Jun-14 07:33N 29°43' E 122°24'20 9.9
2016-Jun-14 05:33N 29°55' E 122°07'1010.2
2016-Jun-14 04:33N 29°57' E 121°55'2 0.4
2016-Jun-13 23:23N 29°56' E 121°53'0 0.0
2016-Jun-13 22:17N 29°56' E 121°53'0 0.0
2016-Jun-13 19:17N 29°56' E 121°53'0 0.0
2016-Jun-13 17:23N 29°56' E 121°53'0 0.0
2016-Jun-13 03:17N 29°56' E 121°53'1 0.2
2016-Jun-13 00:04N 29°57' E 121°54'0 0.0
2016-Jun-12 19:10N 29°57' E 121°53'0 0.1
2016-Jun-12 17:10N 29°57' E 121°54'0 0.0
2016-Jun-12 02:28N 29°57' E 121°54'0 0.0
2016-Jun-12 01:28N 29°57' E 121°54'0 0.0
2016-Jun-11 21:13N 29°57' E 121°54'0 0.1
2016-Jun-11 18:28N 29°57' E 121°53'0 0.0
2016-Jun-11 09:33N 29°57' E 121°54'0 0.0
2016-Jun-11 02:09N 29°57' E 121°53'0 0.0
2016-Jun-10 21:27N 29°57' E 121°53'0 0.1
2016-Jun-10 18:15N 29°57' E 121°53'0 0.1
2016-Jun-10 17:27N 29°57' E 121°53'0 0.0
2016-Jun-10 01:27N 29°57' E 121°53'0 0.1
2016-Jun-10 00:27N 29°57' E 121°53'0 0.0
2016-Jun-09 23:15N 29°57' E 121°53'0 0.1
2016-Jun-09 19:09N 29°57' E 121°53'0 0.0
2016-Jun-09 09:27N 29°57' E 121°53'0 0.1
2016-Jun-09 06:27N 29°57' E 121°53'0 0.1
2016-Jun-09 03:09N 29°57' E 121°53'0 0.2
2016-Jun-09 02:33N 29°57' E 121°53'0 0.0
2016-Jun-08 18:15N 29°57' E 121°53'0 0.0
2016-Jun-08 06:19N 29°57' E 121°53'3 4.1
2016-Jun-08 05:28N 29°58' E 121°57'8 8.7
2016-Jun-08 04:32N 29°55' E 122°06'10 9.8
2016-Jun-08 03:32N 29°49' E 122°14'10 9.7
2016-Jun-08 02:33N 29°44' E 122°24'6 6.3
2016-Jun-08 01:32N 29°42' E 122°31'7 3.3
2016-Jun-07 23:20N 29°42' E 122°39'0 0.4
2016-Jun-07 22:24N 29°42' E 122°39'17 6.0
2016-Jun-07 19:33N 29°27' E 122°49'  

Dump ship's entire track history